Salcha, AK

3:04 PM AKST on February 26, 2017 (GMT -0900)
MD1453 | | Change Station

Elev 701 ft 64.45 °N, 146.89 °W | Updated 36 seconds ago

Overcast
Overcast
32.0 °F
Feels Like 28 °F
N
4.0
Wind Variable Wind from West
Gusts 10.0 mph

Today
High -- | Low -- °F
--% Chance of Precip.
Yesterday
High -- | Low -- °F
Precip. -- in
Pressure 30.14 in
Visibility 10.0 miles
Clouds Scattered Clouds 3300 ft
Mostly Cloudy 7000 ft
Windchill 28 °F
Dew Point 25 °F
Humidity 74%
Rainfall 0.23 in
Snow Depth Not available.
8:04 AM 5:57 PM
New Moon, 0% visible
METAR PAEI 262358Z 27008G19KT 200V300 10SM SCT033 BKN070 00/M06 A3011 RMK AO2A SLP206 P0000 60000 4/035 T00011056 10002 21007 58005 CHINO RWY14 $
Pressure 30.14 in
Visibility 10.0 miles
Clouds Scattered Clouds 3300 ft
Mostly Cloudy 7000 ft
Windchill 28 °F
Dew Point 25 °F
Humidity 74%
Rainfall 0.23 in
Snow Depth Not available.
8:04 AM 5:57 PM
New Moon, 0% visible
METAR PAEI 262358Z 27008G19KT 200V300 10SM SCT033 BKN070 00/M06 A3011 RMK AO2A SLP206 P0000 60000 4/035 T00011056 10002 21007 58005 CHINO RWY14 $

Get Your Daily Forecast Email!

Thanks for signing up!

Be on the lookout for a verification email in your inbox.

You'll start receiving the daily forecast at 8 AM.

×

10-Day Weather Forecast

Almanac

Astronomy

Feb. 26, 2017 Rise Set
Actual Time
Civil Twilight
Nautical Twilight
Astronomical Twilight
Moon
Length of Visible Light
Length of Day
Tomorrow will be .
, % of the Moon is Illuminated

Today's Extremes

State Highs State Lows

Community

WunderPhotos

Upload Photos

1,962,540 photos uploaded!

WunderBlog® & News

Nearby

Air Quality

  Air Quality AQ Index Pollutant
Not available.

Snow Depth

Station Depth Elevation

Earthquake Activity

City Distance Mag. Time & Date
Minimum magnitude displayed is 2.5.

Coastal Water Temperatures

Place Temperature

Stations

Nearby Weather Stations

Station Location Temp. Windchill Dew Point Humidity Wind Precip. Elev Updated Type
                   

Watches & Warnings

There are currently no watches in effect.